Time;durP1;ratioP1;P1;durP2;ratioP2;P2;SDS_P1;SDS_P2;PMS_P1;PMS_P2;Temp;Humidity;BMP_temperature;BMP_pressure;BME280_temperature;BME280_humidity;BME280_pressure;Samples;Min_cycle;Max_cycle;Signal;HPM_P1;HPM_P2
2021/12/11 00:02:06;;;;;;;146.60;45.00;;;-1.20;99.90;;;;;;4342373;28;660822;-70
2021/12/11 00:05:01;;;;;;;147.67;44.90;;;-1.20;99.90;;;;;;4370075;28;659803;-70
2021/12/11 00:07:50;;;;;;;137.47;41.90;;;-1.30;99.90;;;;;;4363831;28;659649;-70
2021/12/11 00:10:46;;;;;;;123.13;38.50;;;-1.30;99.90;;;;;;4375968;28;660997;-70
2021/12/11 00:13:41;;;;;;;131.13;41.67;;;-1.40;99.90;;;;;;4368833;28;661187;-70
2021/12/11 00:16:40;;;;;;;130.23;40.23;;;-1.50;99.90;;;;;;4381276;28;659813;-69
2021/12/11 00:19:36;;;;;;;143.70;45.63;;;-1.60;99.90;;;;;;4359854;28;660652;-70
2021/12/11 00:22:26;;;;;;;125.00;40.43;;;-1.70;99.90;;;;;;4380648;28;659845;-69
2021/12/11 00:25:14;;;;;;;78.87;26.60;;;-1.70;99.90;;;;;;4348063;28;660208;-71
2021/12/11 00:28:05;;;;;;;89.67;28.90;;;-1.70;99.90;;;;;;4362727;28;658830;-71
2021/12/11 00:30:52;;;;;;;100.30;31.57;;;-1.60;99.90;;;;;;4355503;28;660317;-71
2021/12/11 00:33:41;;;;;;;181.63;40.47;;;-1.60;99.90;;;;;;4376266;28;662242;-71
2021/12/11 00:36:32;;;;;;;110.80;34.20;;;-1.50;99.90;;;;;;4353405;28;661063;-71
2021/12/11 00:39:19;;;;;;;147.40;33.97;;;-1.50;99.90;;;;;;4374183;28;659640;-70
2021/12/11 00:42:12;;;;;;;199.33;35.83;;;-1.40;99.90;;;;;;4380414;28;660922;-71
2021/12/11 00:45:03;;;;;;;183.97;38.80;;;-1.30;99.90;;;;;;4368323;28;659730;-71
2021/12/11 00:47:55;;;;;;;131.80;36.95;;;-1.30;99.90;;;;;;4376751;28;659869;-71
2021/12/11 00:50:48;;;;;;;153.13;39.17;;;-1.20;99.90;;;;;;4376069;28;660326;-70
2021/12/11 00:53:39;;;;;;;156.67;38.37;;;-1.20;99.90;;;;;;4369048;28;659994;-70
2021/12/11 00:56:28;;;;;;;147.50;39.23;;;-1.10;99.90;;;;;;4374386;28;660095;-70
2021/12/11 00:59:18;;;;;;;212.83;41.23;;;-1.10;99.90;;;;;;4370830;28;659694;-70
2021/12/11 01:02:12;;;;;;;201.50;39.63;;;-1.00;99.90;;;;;;4380545;28;659526;-70
2021/12/11 01:05:00;;;;;;;191.50;39.17;;;-1.00;99.90;;;;;;4364635;28;660060;-70
2021/12/11 01:07:49;;;;;;;151.33;40.30;;;-1.00;99.90;;;;;;4370183;28;660818;-70
2021/12/11 01:10:36;;;;;;;212.80;41.60;;;-0.90;99.90;;;;;;4364536;28;660151;-70
2021/12/11 01:13:26;;;;;;;268.37;38.93;;;-0.90;99.90;;;;;;4393480;28;659539;-70
2021/12/11 01:16:15;;;;;;;188.17;36.07;;;-0.90;99.90;;;;;;4367409;28;661110;-70
2021/12/11 01:19:04;;;;;;;270.70;38.13;;;-0.90;99.90;;;;;;4369370;28;661528;-70
2021/12/11 01:21:59;;;;;;;329.87;39.53;;;-0.80;99.90;;;;;;4368319;28;660271;-70
2021/12/11 01:24:51;;;;;;;186.00;34.30;;;-0.80;99.90;;;;;;4354354;28;660630;-70
2021/12/11 01:27:52;;;;;;;245.03;36.27;;;-0.80;99.90;;;;;;4366608;28;660139;-70
2021/12/11 01:30:41;;;;;;;210.48;35.63;;;-0.70;99.90;;;;;;4369204;28;659429;-70
2021/12/11 01:33:29;;;;;;;201.60;33.20;;;-0.80;99.90;;;;;;4366868;28;659869;-70
2021/12/11 01:36:17;;;;;;;370.65;37.33;;;-0.80;99.90;;;;;;4375202;28;660025;-70
2021/12/11 01:39:08;;;;;;;242.70;33.43;;;-0.80;99.90;;;;;;4396681;28;659057;-70
2021/12/11 01:41:58;;;;;;;296.23;33.87;;;-0.80;99.90;;;;;;4340941;28;661257;-70
2021/12/11 01:44:46;;;;;;;274.93;35.70;;;-0.80;99.90;;;;;;4376941;28;659817;-70
2021/12/11 01:47:35;;;;;;;151.17;33.80;;;-0.80;99.90;;;;;;4390288;28;660753;-70
2021/12/11 01:50:25;;;;;;;190.80;34.97;;;-0.80;99.90;;;;;;4369315;28;660317;-70
2021/12/11 01:53:15;;;;;;;168.13;35.17;;;-0.70;99.90;;;;;;4366646;28;660545;-70
2021/12/11 01:56:05;;;;;;;203.27;35.13;;;-0.70;99.90;;;;;;4375518;28;660274;-70
2021/12/11 01:59:04;;;;;;;295.97;36.47;;;-0.70;99.90;;;;;;4370996;28;660737;-70
2021/12/11 02:01:53;;;;;;;192.70;34.60;;;-0.70;99.90;;;;;;4367555;28;660239;-70
2021/12/11 02:04:42;;;;;;;173.67;35.50;;;-0.70;99.90;;;;;;4371911;28;661123;-70
2021/12/11 02:07:31;;;;;;;237.95;35.22;;;-0.70;99.90;;;;;;4372358;28;660450;-70
2021/12/11 02:10:22;;;;;;;175.10;35.17;;;-0.60;99.90;;;;;;4364817;28;660970;-71
2021/12/11 02:13:12;;;;;;;157.47;33.77;;;-0.60;99.90;;;;;;4358695;28;659773;-70
2021/12/11 02:16:01;;;;;;;144.33;34.33;;;-0.60;99.90;;;;;;4386870;28;660390;-70
2021/12/11 02:18:50;;;;;;;135.70;34.13;;;-0.60;99.90;;;;;;4368474;28;660980;-70
2021/12/11 02:21:47;;;;;;;126.13;34.13;;;-0.50;99.90;;;;;;4370996;28;659930;-70
2021/12/11 02:24:36;;;;;;;126.47;33.23;;;-0.60;99.90;;;;;;4367364;28;659671;-70
2021/12/11 02:27:26;;;;;;;128.67;33.30;;;-0.60;99.90;;;;;;4367953;28;660833;-70
2021/12/11 02:30:20;;;;;;;140.70;35.33;;;-0.60;99.90;;;;;;4363303;28;660668;-70
2021/12/11 02:33:10;;;;;;;143.60;35.00;;;-0.50;99.90;;;;;;4346663;28;659761;-70
2021/12/11 02:36:01;;;;;;;177.67;35.33;;;-0.50;99.90;;;;;;4351720;28;660202;-70
2021/12/11 02:38:52;;;;;;;194.93;37.53;;;-0.50;99.90;;;;;;4347071;28;660487;-70
2021/12/11 02:41:49;;;;;;;170.50;36.17;;;-0.50;99.90;;;;;;4349743;28;661080;-70
2021/12/11 02:44:38;;;;;;;177.47;35.37;;;-0.50;99.90;;;;;;4377747;28;659725;-70
2021/12/11 02:47:27;;;;;;;158.90;36.60;;;-0.60;99.90;;;;;;4366837;28;660584;-70
2021/12/11 02:50:18;;;;;;;228.03;37.43;;;-0.50;99.90;;;;;;4390058;28;659883;-70
2021/12/11 02:53:07;;;;;;;230.77;36.30;;;-0.50;99.90;;;;;;4372518;28;660083;-70
2021/12/11 02:55:59;;;;;;;139.13;35.17;;;-0.60;99.90;;;;;;4379139;28;659705;-70
2021/12/11 02:58:48;;;;;;;148.50;35.80;;;-0.50;99.90;;;;;;4368253;28;659784;-70
2021/12/11 03:01:38;;;;;;;196.27;37.87;;;-0.50;99.90;;;;;;4356414;28;660008;-70
2021/12/11 03:04:32;;;;;;;197.80;36.90;;;-0.60;99.90;;;;;;4358564;28;661075;-70
2021/12/11 03:07:21;;;;;;;168.43;34.77;;;-0.70;99.90;;;;;;4360209;28;660147;-70
2021/12/11 03:10:11;;;;;;;198.73;35.27;;;-0.60;99.90;;;;;;4363583;28;660186;-70
2021/12/11 03:13:00;;;;;;;220.93;34.30;;;-0.60;99.90;;;;;;4359470;28;659442;-70
2021/12/11 03:15:49;;;;;;;326.20;37.53;;;-0.60;99.90;;;;;;4363659;28;660077;-70
2021/12/11 03:18:36;;;;;;;211.57;36.57;;;-0.60;99.90;;;;;;4367788;28;659646;-70
2021/12/11 03:21:24;;;;;;;258.50;37.80;;;-0.60;99.90;;;;;;4387268;28;659358;-70
2021/12/11 03:24:12;;;;;;;266.07;37.57;;;-0.60;99.90;;;;;;4379116;28;659778;-70
2021/12/11 03:26:59;;;;;;;245.20;38.53;;;-0.70;99.90;;;;;;4393029;28;659883;-70
2021/12/11 03:29:48;;;;;;;179.60;39.27;;;-0.60;99.90;;;;;;4370991;28;660970;-71
2021/12/11 03:32:36;;;;;;;144.93;35.70;;;-0.60;99.90;;;;;;4381016;28;659623;-70
2021/12/11 03:35:24;;;;;;;205.37;37.00;;;-0.70;99.90;;;;;;4391814;28;660403;-70
2021/12/11 03:38:11;;;;;;;160.93;36.30;;;-0.70;99.90;;;;;;4375587;28;659637;-70
2021/12/11 03:40:59;;;;;;;309.07;40.60;;;-0.70;99.90;;;;;;4390886;28;659861;-70
2021/12/11 03:43:47;;;;;;;226.87;39.90;;;-0.80;99.90;;;;;;4378816;28;659854;-70
2021/12/11 03:46:36;;;;;;;188.33;37.70;;;-0.80;99.90;;;;;;4394462;28;660562;-70
2021/12/11 03:49:24;;;;;;;221.75;40.60;;;-0.90;99.90;;;;;;4376881;28;660440;-70
2021/12/11 03:52:12;;;;;;;192.37;40.37;;;-0.80;99.90;;;;;;4374952;28;659636;-70
2021/12/11 03:54:59;;;;;;;212.70;43.33;;;-0.90;99.90;;;;;;4384963;28;659545;-69
2021/12/11 03:57:47;;;;;;;205.40;40.03;;;-0.90;99.90;;;;;;4373412;28;659835;-70
2021/12/11 04:00:39;;;;;;;222.53;42.87;;;-1.00;99.90;;;;;;4382715;28;659582;-69
2021/12/11 04:03:30;;;;;;;249.20;41.70;;;-1.00;99.90;;;;;;4380865;28;659528;-69
2021/12/11 04:06:17;;;;;;;213.10;44.83;;;-1.00;99.90;;;;;;4384466;28;661007;-69
2021/12/11 04:09:07;;;;;;;197.73;43.10;;;-1.10;99.90;;;;;;4390822;28;660366;-69
2021/12/11 04:11:55;;;;;;;171.07;40.60;;;-1.00;99.90;;;;;;4400756;28;659613;-70
2021/12/11 04:14:45;;;;;;;161.27;39.30;;;-1.10;99.90;;;;;;4381273;28;660303;-69
2021/12/11 04:17:32;;;;;;;163.43;40.37;;;-1.00;99.90;;;;;;4382134;28;660655;-69
2021/12/11 04:20:22;;;;;;;149.57;36.53;;;-1.00;99.90;;;;;;4396304;28;659513;-69
2021/12/11 04:23:14;;;;;;;159.20;36.70;;;-1.10;99.90;;;;;;4375048;28;659659;-69
2021/12/11 04:26:01;;;;;;;149.53;35.07;;;-1.10;99.90;;;;;;4375519;28;659502;-69
2021/12/11 04:28:49;;;;;;;119.13;30.67;;;-1.10;99.90;;;;;;4393026;28;660153;-69
2021/12/11 04:31:40;;;;;;;142.60;35.67;;;-1.10;99.90;;;;;;4376646;28;659857;-69
2021/12/11 04:34:28;;;;;;;109.17;32.03;;;-1.20;99.90;;;;;;4367097;28;660305;-69
2021/12/11 04:37:20;;;;;;;121.55;33.63;;;-1.20;99.90;;;;;;4372004;28;659761;-69
2021/12/11 04:40:11;;;;;;;136.83;33.10;;;-1.30;99.90;;;;;;4369088;28;660589;-69
2021/12/11 04:43:04;;;;;;;138.60;35.13;;;-1.40;99.90;;;;;;4363629;28;659975;-69
2021/12/11 04:45:54;;;;;;;125.27;32.73;;;-1.40;99.90;;;;;;4368632;28;659735;-69
2021/12/11 04:48:51;;;;;;;127.13;29.77;;;-1.50;99.90;;;;;;4382641;28;659651;-69
2021/12/11 04:51:45;;;;;;;147.70;36.40;;;-1.40;99.90;;;;;;4378615;28;660188;-69
2021/12/11 04:54:47;;;;;;;148.97;36.50;;;-1.50;99.90;;;;;;4348070;28;659935;-69
2021/12/11 04:57:56;;;;;;;151.33;35.67;;;-1.50;99.90;;;;;;4345763;28;660513;-69
2021/12/11 05:00:56;;;;;;;139.30;35.87;;;-1.50;99.90;;;;;;4372846;28;659957;-69
2021/12/11 05:07:00;;;;;;;152.00;37.50;;;-1.50;99.90;;;;;;4343951;28;660205;-69
2021/12/11 05:09:57;;;;;;;130.47;35.23;;;-1.40;99.90;;;;;;4337690;28;660020;-69
2021/12/11 05:12:45;;;;;;;147.40;34.47;;;-1.40;99.90;;;;;;4369097;28;660090;-69
2021/12/11 05:15:34;;;;;;;135.53;34.93;;;-1.40;99.90;;;;;;4365721;28;660828;-69
2021/12/11 05:18:23;;;;;;;118.93;32.50;;;-1.50;99.90;;;;;;4372766;28;659720;-69
2021/12/11 05:21:13;;;;;;;113.77;34.37;;;-1.50;99.90;;;;;;4370359;28;660362;-69
2021/12/11 05:24:01;;;;;;;126.30;33.30;;;-1.40;99.90;;;;;;4365092;28;659985;-69
2021/12/11 05:26:50;;;;;;;115.10;34.17;;;-1.40;99.90;;;;;;4380983;28;660130;-69
2021/12/11 05:29:38;;;;;;;124.27;32.43;;;-1.40;99.90;;;;;;4363691;28;660304;-69
2021/12/11 05:32:26;;;;;;;129.73;33.28;;;-1.40;99.90;;;;;;4363734;28;660302;-69
2021/12/11 05:35:14;;;;;;;116.83;32.60;;;-1.40;99.90;;;;;;4383900;28;660169;-69
2021/12/11 05:38:02;;;;;;;117.37;32.50;;;-1.30;99.90;;;;;;4359975;28;659516;-69
2021/12/11 05:40:50;;;;;;;136.17;35.77;;;-1.30;99.90;;;;;;4381170;28;659451;-69
2021/12/11 05:43:40;;;;;;;134.53;34.37;;;-1.30;99.90;;;;;;4360110;28;660340;-69
2021/12/11 05:46:28;;;;;;;126.07;33.93;;;-1.30;99.90;;;;;;4364409;28;660626;-69
2021/12/11 05:49:16;;;;;;;137.70;35.27;;;-1.40;99.90;;;;;;4359922;28;659959;-69
2021/12/11 05:52:05;;;;;;;118.32;33.03;;;-1.40;99.90;;;;;;4378348;28;660006;-69
2021/12/11 05:54:53;;;;;;;137.53;33.27;;;-1.40;99.90;;;;;;4349076;28;660626;-69
2021/12/11 05:57:41;;;;;;;107.67;31.70;;;-1.50;99.90;;;;;;4382891;28;659601;-69
2021/12/11 06:00:31;;;;;;;100.27;28.23;;;-1.50;99.90;;;;;;4390954;28;660370;-69
2021/12/11 06:03:19;;;;;;;96.93;28.30;;;-1.50;99.90;;;;;;4366444;28;660203;-69
2021/12/11 06:06:07;;;;;;;108.95;30.20;;;-1.50;99.90;;;;;;4369253;28;659041;-69
2021/12/11 06:08:55;;;;;;;91.82;28.55;;;-1.50;99.90;;;;;;4384610;28;659602;-69
2021/12/11 06:11:43;;;;;;;84.30;26.33;;;-1.60;99.90;;;;;;4370745;28;660320;-69
2021/12/11 06:14:31;;;;;;;99.67;29.43;;;-1.60;99.90;;;;;;4371424;28;658824;-69
2021/12/11 06:17:22;;;;;;;277.90;30.27;;;-1.60;99.90;;;;;;4385906;28;660488;-69
2021/12/11 06:20:12;;;;;;;90.33;27.43;;;-1.60;99.90;;;;;;4365826;28;660659;-69
2021/12/11 06:22:59;;;;;;;87.03;27.23;;;-1.60;99.90;;;;;;4357739;28;658988;-70
2021/12/11 06:25:47;;;;;;;82.30;26.80;;;-1.60;99.90;;;;;;4371021;28;659901;-69
2021/12/11 06:28:35;;;;;;;86.07;25.73;;;-1.70;99.90;;;;;;4375141;28;658903;-69
2021/12/11 06:31:22;;;;;;;83.93;27.43;;;-1.70;99.90;;;;;;4371500;28;658886;-69
2021/12/11 06:34:12;;;;;;;82.77;25.17;;;-1.80;99.90;;;;;;4383101;28;658857;-69
2021/12/11 06:36:59;;;;;;;80.87;27.60;;;-2.00;99.90;;;;;;4358233;28;658961;-69
2021/12/11 06:39:47;;;;;;;83.07;25.40;;;-2.00;99.90;;;;;;4367327;28;658501;-69
2021/12/11 06:42:35;;;;;;;91.67;27.00;;;-2.10;99.90;;;;;;4384730;28;659996;-69
2021/12/11 06:45:22;;;;;;;83.63;24.70;;;-2.10;99.90;;;;;;4362402;28;658968;-69
2021/12/11 06:48:11;;;;;;;87.50;26.97;;;-2.10;99.90;;;;;;4387429;28;658491;-70
2021/12/11 06:51:00;;;;;;;83.40;26.47;;;-2.20;99.90;;;;;;4384045;28;659249;-69
2021/12/11 06:53:51;;;;;;;91.43;28.87;;;-2.20;99.90;;;;;;4359855;28;659484;-70
2021/12/11 06:56:39;;;;;;;85.82;28.25;;;-2.30;99.90;;;;;;4362799;28;660854;-69
2021/12/11 06:59:27;;;;;;;105.57;32.60;;;-2.30;99.90;;;;;;4374378;28;659556;-69
2021/12/11 07:02:15;;;;;;;106.07;32.40;;;-2.40;99.90;;;;;;4371941;28;659315;-69
2021/12/11 07:05:03;;;;;;;125.00;37.53;;;-2.40;99.90;;;;;;4358201;28;660251;-69
2021/12/11 07:07:52;;;;;;;145.30;45.50;;;-2.30;99.90;;;;;;4349730;28;659915;-69
2021/12/11 07:10:40;;;;;;;179.83;50.03;;;-2.40;99.90;;;;;;4373408;28;659876;-69
2021/12/11 07:13:28;;;;;;;117.10;36.40;;;-2.40;99.90;;;;;;4367272;28;659980;-69
2021/12/11 07:16:16;;;;;;;116.57;36.53;;;-2.30;99.90;;;;;;4379059;28;659727;-69
2021/12/11 07:19:04;;;;;;;172.43;49.63;;;-2.40;99.90;;;;;;4393849;28;660005;-69
2021/12/11 07:21:52;;;;;;;168.63;53.43;;;-2.30;99.90;;;;;;4372437;28;660056;-69
2021/12/11 07:24:43;;;;;;;239.50;68.77;;;-2.30;99.90;;;;;;4401112;28;659442;-69
2021/12/11 07:27:31;;;;;;;309.73;89.30;;;-2.30;99.90;;;;;;4350785;28;659812;-69
2021/12/11 07:30:18;;;;;;;239.70;68.63;;;-2.20;99.90;;;;;;4390804;28;660681;-69
2021/12/11 07:33:43;;;;;;;223.57;62.90;;;-2.10;99.90;;;;;;4367530;28;659739;-69
2021/12/11 07:36:31;;;;;;;201.90;60.87;;;-2.00;99.90;;;;;;4348616;28;659898;-69
2021/12/11 07:39:19;;;;;;;260.67;74.83;;;-2.00;99.90;;;;;;4390423;28;660629;-69
2021/12/11 07:42:08;;;;;;;294.53;81.67;;;-1.90;99.90;;;;;;4358669;28;659990;-69
2021/12/11 07:44:56;;;;;;;295.10;78.83;;;-1.70;99.90;;;;;;4369204;28;659933;-69
2021/12/11 07:47:43;;;;;;;335.80;90.03;;;-1.50;99.90;;;;;;4386563;28;661099;-69
2021/12/11 07:50:31;;;;;;;212.70;58.83;;;-1.30;99.90;;;;;;4366209;28;660124;-69
2021/12/11 07:53:20;;;;;;;146.43;47.27;;;-1.20;99.90;;;;;;4389907;28;659764;-69
2021/12/11 07:56:08;;;;;;;218.00;68.30;;;-1.00;99.90;;;;;;4368865;28;660425;-69
2021/12/11 07:58:59;;;;;;;199.13;63.20;;;-0.90;99.90;;;;;;4372370;28;659924;-69
2021/12/11 08:01:49;;;;;;;186.70;62.50;;;-0.80;99.90;;;;;;4366446;28;659565;-69
2021/12/11 08:04:36;;;;;;;193.90;66.00;;;-0.60;99.90;;;;;;4366329;28;659950;-69
2021/12/11 08:07:24;;;;;;;165.60;56.27;;;-0.40;99.90;;;;;;4383246;28;659528;-69
2021/12/11 08:10:15;;;;;;;163.17;54.10;;;-0.30;99.90;;;;;;4361750;28;660397;-69
2021/12/11 08:13:03;;;;;;;151.67;54.43;;;-0.20;99.90;;;;;;4352793;28;661042;-69
2021/12/11 08:15:54;;;;;;;153.03;50.33;;;0.00;99.90;;;;;;4359900;28;659373;-69
2021/12/11 08:18:42;;;;;;;139.63;49.90;;;0.20;99.90;;;;;;4361011;28;659777;-69
2021/12/11 08:21:30;;;;;;;144.43;49.47;;;0.40;99.90;;;;;;4389897;28;658650;-69
2021/12/11 08:24:18;;;;;;;139.53;49.77;;;0.60;99.90;;;;;;4360834;28;659552;-69
2021/12/11 08:27:10;;;;;;;133.23;45.73;;;0.70;99.90;;;;;;4375165;28;658577;-70
2021/12/11 08:29:57;;;;;;;134.03;47.83;;;0.70;99.90;;;;;;4370038;28;659894;-69
2021/12/11 08:32:47;;;;;;;133.73;47.27;;;0.80;99.90;;;;;;4387320;28;658302;-69
2021/12/11 08:35:35;;;;;;;138.47;47.70;;;0.90;99.90;;;;;;4393842;28;659048;-69
2021/12/11 08:38:22;;;;;;;157.20;53.63;;;1.00;99.90;;;;;;4374948;28;659301;-70
2021/12/11 08:41:11;;;;;;;145.03;53.30;;;1.10;99.90;;;;;;4386614;28;658550;-69
2021/12/11 08:44:03;;;;;;;167.27;59.43;;;1.10;99.90;;;;;;4394239;28;659321;-69
2021/12/11 08:46:52;;;;;;;172.07;60.53;;;1.10;99.90;;;;;;4352426;28;658544;-70
2021/12/11 08:49:42;;;;;;;163.57;60.83;;;1.10;99.90;;;;;;4392211;28;659186;-70
2021/12/11 08:52:32;;;;;;;160.43;56.17;;;1.20;99.90;;;;;;4370889;28;658903;-69
2021/12/11 08:55:21;;;;;;;184.27;66.17;;;1.20;99.90;;;;;;4371033;28;658352;-69
2021/12/11 08:58:10;;;;;;;194.43;67.03;;;1.10;99.90;;;;;;4367639;28;658947;-69
2021/12/11 09:00:59;;;;;;;182.80;64.13;;;1.10;99.90;;;;;;4370862;28;660429;-69
2021/12/11 09:03:50;;;;;;;207.23;67.33;;;1.00;99.90;;;;;;4374637;28;659232;-69
2021/12/11 09:06:42;;;;;;;182.52;62.17;;;1.00;99.90;;;;;;4358616;28;659753;-69
2021/12/11 09:09:32;;;;;;;159.33;54.37;;;1.00;31.10;;;;;;4369979;28;658870;-69
2021/12/11 09:12:22;;;;;;;147.27;52.77;;;1.10;1.00;;;;;;4368125;28;658572;-70
2021/12/11 09:15:11;;;;;;;119.25;45.90;;;1.10;1.00;;;;;;4362266;28;658483;-69
2021/12/11 09:18:02;;;;;;;131.70;48.47;;;1.10;1.00;;;;;;4358095;28;657790;-70
2021/12/11 09:20:52;;;;;;;130.13;49.13;;;1.20;1.00;;;;;;4367827;28;659098;-69
2021/12/11 09:23:43;;;;;;;137.37;49.33;;;1.20;1.00;;;;;;4354148;28;657463;-69
2021/12/11 09:26:33;;;;;;;142.73;49.33;;;1.30;1.00;;;;;;4346709;28;658424;-69
2021/12/11 09:29:23;;;;;;;142.70;50.30;;;1.30;1.00;;;;;;4364430;28;658115;-70
2021/12/11 09:32:15;;;;;;;152.37;52.67;;;1.40;1.00;;;;;;4368990;28;657651;-70
2021/12/11 09:35:06;;;;;;;153.55;51.10;;;1.50;1.00;;;;;;4370807;28;657113;-69
2021/12/11 09:37:55;;;;;;;123.73;44.23;;;1.50;1.00;;;;;;4346169;28;657802;-69
2021/12/11 09:40:55;;;;;;;112.03;41.77;;;1.60;1.00;;;;;;4341264;28;658172;-70
2021/12/11 09:43:45;;;;;;;108.23;42.63;;;1.60;1.00;;;;;;4340865;28;657973;-70
2021/12/11 09:46:34;;;;;;;112.30;42.60;;;1.70;1.00;;;;;;4353995;28;658983;-70
2021/12/11 09:49:26;;;;;;;105.57;37.53;;;1.80;1.00;;;;;;4357175;28;657623;-69
2021/12/11 09:52:18;;;;;;;91.63;35.40;;;1.80;1.00;;;;;;4365939;28;657928;-70
2021/12/11 09:55:07;;;;;;;96.87;35.13;;;1.70;1.00;;;;;;4340740;28;656469;-70
2021/12/11 09:57:57;;;;;;;99.73;36.27;;;1.60;1.00;;;;;;4381839;28;656800;-70
2021/12/11 10:00:49;;;;;;;81.77;31.07;;;1.60;1.00;;;;;;4376696;28;656526;-70
2021/12/11 10:03:40;;;;;;;101.03;38.00;;;1.60;1.00;;;;;;4355094;28;656984;-70
2021/12/11 10:06:41;;;;;;;110.47;41.97;;;1.50;1.00;;;;;;4348913;28;658214;-69
2021/12/11 10:09:49;;;;;;;120.23;40.97;;;1.50;1.00;;;;;;4363610;28;657521;-70
2021/12/11 10:12:38;;;;;;;117.57;41.73;;;1.60;99.90;;;;;;4337491;28;657820;-70
2021/12/11 10:15:27;;;;;;;108.93;40.40;;;1.60;99.90;;;;;;4366531;28;658921;-70
2021/12/11 10:18:18;;;;;;;110.17;40.73;;;1.60;99.90;;;;;;4393481;28;658697;-70
2021/12/11 10:21:10;;;;;;;99.00;37.27;;;1.80;99.90;;;;;;4340419;28;658646;-70
2021/12/11 10:23:59;;;;;;;102.87;37.43;;;1.90;99.90;;;;;;4363682;28;658627;-70
2021/12/11 10:26:47;;;;;;;103.37;38.33;;;2.00;99.90;;;;;;4367646;28;658854;-70
2021/12/11 10:29:34;;;;;;;108.73;38.47;;;2.10;99.90;;;;;;4372934;28;658309;-70
2021/12/11 10:32:24;;;;;;;113.10;40.73;;;2.10;99.90;;;;;;4358211;28;659717;-70
2021/12/11 10:35:16;;;;;;;104.27;38.47;;;2.00;99.90;;;;;;4357974;28;658723;-70
2021/12/11 10:38:05;;;;;;;107.73;38.93;;;2.00;99.90;;;;;;4355906;28;658865;-70
2021/12/11 10:40:54;;;;;;;101.30;38.93;;;1.90;99.90;;;;;;4352562;28;659232;-70
2021/12/11 10:43:46;;;;;;;104.00;36.53;;;1.80;99.90;;;;;;4355799;28;660933;-70
2021/12/11 10:46:35;;;;;;;100.90;36.47;;;1.80;99.90;;;;;;4357276;28;659164;-70
2021/12/11 10:49:23;;;;;;;99.13;37.90;;;1.80;99.90;;;;;;4354014;28;659511;-70
2021/12/11 10:52:15;;;;;;;91.77;33.33;;;1.80;99.90;;;;;;4372759;28;658162;-70
2021/12/11 10:55:04;;;;;;;91.60;33.93;;;1.70;99.90;;;;;;4355230;28;658728;-70
2021/12/11 10:57:53;;;;;;;93.97;34.07;;;1.60;99.90;;;;;;4361391;28;657503;-70
2021/12/11 11:00:42;;;;;;;92.18;33.38;;;1.50;99.90;;;;;;4359562;28;657361;-70
2021/12/11 11:03:33;;;;;;;95.47;35.23;;;1.50;99.90;;;;;;4377712;28;657909;-69
2021/12/11 11:06:21;;;;;;;85.13;32.43;;;1.40;99.90;;;;;;4349936;28;657466;-70
2021/12/11 11:09:10;;;;;;;88.40;32.90;;;1.40;99.90;;;;;;4389773;28;658745;-70
2021/12/11 11:12:01;;;;;;;85.03;32.83;;;1.50;99.90;;;;;;4345456;28;659374;-69
2021/12/11 11:14:49;;;;;;;85.40;31.77;;;1.40;99.90;;;;;;4342503;28;657959;-70
2021/12/11 11:17:37;;;;;;;93.73;33.17;;;1.50;99.90;;;;;;4355849;28;657932;-70
2021/12/11 11:20:26;;;;;;;98.53;33.97;;;1.50;99.90;;;;;;4382598;28;657059;-70
2021/12/11 11:23:14;;;;;;;100.13;35.83;;;1.50;99.90;;;;;;4361773;28;658508;-70
2021/12/11 11:26:06;;;;;;;94.17;35.00;;;1.50;99.90;;;;;;4359713;28;658631;-70
2021/12/11 11:28:54;;;;;;;93.27;33.97;;;1.50;99.90;;;;;;4340746;28;657779;-70
2021/12/11 11:31:42;;;;;;;111.00;41.43;;;1.50;99.90;;;;;;4350930;28;659351;-70
2021/12/11 11:34:31;;;;;;;106.87;39.90;;;1.50;99.90;;;;;;4384607;28;658079;-70
2021/12/11 11:37:20;;;;;;;99.77;38.40;;;1.60;99.90;;;;;;4346237;28;659376;-69
2021/12/11 11:40:11;;;;;;;113.33;41.67;;;1.60;99.90;;;;;;4337332;28;659049;-70
2021/12/11 11:43:00;;;;;;;123.60;45.10;;;1.60;99.90;;;;;;4322907;28;659852;-70
2021/12/11 11:45:52;;;;;;;121.53;46.80;;;1.60;99.90;;;;;;4322352;28;660285;-70
2021/12/11 11:48:43;;;;;;;118.03;42.43;;;1.60;99.90;;;;;;4326878;28;659057;-70
2021/12/11 11:51:33;;;;;;;108.03;41.27;;;1.60;99.90;;;;;;4314032;28;659727;-70
2021/12/11 11:54:23;;;;;;;102.07;39.83;;;1.70;99.90;;;;;;4341186;28;658343;-69
2021/12/11 11:57:12;;;;;;;104.13;37.40;;;1.70;99.90;;;;;;4348917;28;659147;-70
2021/12/11 12:00:01;;;;;;;85.07;34.50;;;1.70;99.90;;;;;;4360688;28;658085;-70
2021/12/11 12:02:49;;;;;;;89.57;35.17;;;1.80;99.90;;;;;;4337895;28;658370;-70
2021/12/11 12:05:37;;;;;;;95.67;35.23;;;1.70;99.90;;;;;;4343359;28;658025;-69
2021/12/11 12:08:25;;;;;;;89.37;34.67;;;1.80;99.90;;;;;;4358704;28;657854;-70
2021/12/11 12:11:12;;;;;;;80.03;31.90;;;1.90;99.90;;;;;;4338871;28;658161;-70
2021/12/11 12:14:00;;;;;;;95.87;35.53;;;1.80;99.90;;;;;;4362548;28;657151;-69
2021/12/11 12:16:50;;;;;;;93.93;34.93;;;1.80;99.90;;;;;;4337722;28;658835;-70
2021/12/11 12:19:37;;;;;;;91.57;32.67;;;1.80;99.90;;;;;;4343953;28;658650;-70
2021/12/11 12:22:25;;;;;;;82.37;32.00;;;1.70;99.90;;;;;;4375987;28;657707;-69
2021/12/11 12:25:13;;;;;;;85.13;31.13;;;1.70;99.90;;;;;;4346372;28;658193;-69
2021/12/11 12:28:01;;;;;;;81.33;31.87;;;1.60;99.90;;;;;;4337813;28;657503;-69
2021/12/11 12:30:49;;;;;;;87.90;32.27;;;1.60;99.90;;;;;;4363263;28;658628;-69
2021/12/11 12:33:39;;;;;;;89.47;33.03;;;1.50;99.90;;;;;;4339684;28;658949;-69
2021/12/11 12:36:26;;;;;;;98.63;35.17;;;1.50;99.90;;;;;;4336369;28;658155;-69
2021/12/11 12:39:17;;;;;;;97.40;34.33;;;1.50;99.90;;;;;;4387819;28;657587;-69
2021/12/11 12:42:16;;;;;;;96.63;34.90;;;1.50;99.90;;;;;;4371824;28;657726;-70
2021/12/11 12:45:09;;;;;;;96.83;34.37;;;1.50;99.90;;;;;;4366697;28;658575;-69
2021/12/11 12:47:59;;;;;;;86.50;31.90;;;1.50;99.90;;;;;;4343608;28;657969;-69
2021/12/11 12:50:53;;;;;;;82.53;32.67;;;1.40;99.90;;;;;;4373056;28;657812;-69
2021/12/11 12:53:44;;;;;;;89.60;33.90;;;1.40;99.90;;;;;;4349441;28;657948;-69
2021/12/11 12:56:33;;;;;;;97.63;32.53;;;1.40;99.90;;;;;;4370611;28;657676;-69
2021/12/11 12:59:24;;;;;;;92.07;34.20;;;1.30;99.90;;;;;;4358462;28;657625;-69
2021/12/11 13:02:13;;;;;;;90.37;32.63;;;1.30;99.90;;;;;;4369819;28;658343;-69
2021/12/11 13:05:04;;;;;;;91.87;33.77;;;1.30;99.90;;;;;;4366471;28;657635;-69
2021/12/11 13:07:54;;;;;;;86.20;31.15;;;1.30;99.90;;;;;;4369642;28;657430;-70
2021/12/11 13:10:43;;;;;;;97.30;35.47;;;1.30;99.90;;;;;;4361291;28;660396;-69
2021/12/11 13:13:31;;;;;;;93.37;32.90;;;1.20;99.90;;;;;;4369829;28;657309;-69
2021/12/11 13:16:22;;;;;;;85.90;30.73;;;1.20;99.90;;;;;;4389751;28;657927;-69
2021/12/11 13:19:12;;;;;;;82.10;32.77;;;1.20;99.90;;;;;;4371443;28;657850;-69
2021/12/11 13:22:01;;;;;;;85.07;31.63;;;1.10;99.90;;;;;;4370039;28;658669;-69
2021/12/11 13:24:53;;;;;;;83.57;32.87;;;1.10;99.90;;;;;;4364802;28;658163;-69
2021/12/11 13:27:41;;;;;;;82.00;30.17;;;1.10;99.90;;;;;;4350099;28;657455;-69
2021/12/11 13:30:31;;;;;;;81.27;30.60;;;1.10;99.90;;;;;;4384467;28;658646;-69
2021/12/11 13:33:20;;;;;;;80.23;31.17;;;1.10;99.90;;;;;;4367128;28;659050;-69
2021/12/11 13:36:08;;;;;;;78.77;30.60;;;1.10;99.90;;;;;;4338718;28;659280;-69
2021/12/11 13:38:56;;;;;;;85.25;31.80;;;1.10;99.90;;;;;;4352968;28;657439;-69
2021/12/11 13:41:47;;;;;;;81.63;30.73;;;1.10;99.90;;;;;;4365150;28;659054;-69
2021/12/11 13:44:37;;;;;;;88.20;31.73;;;1.00;99.90;;;;;;4336968;28;657833;-69
2021/12/11 13:47:28;;;;;;;88.83;31.43;;;1.10;99.90;;;;;;4384788;28;658159;-69
2021/12/11 13:50:24;;;;;;;92.20;33.53;;;1.10;99.90;;;;;;4368075;28;658534;-69
2021/12/11 13:53:12;;;;;;;89.97;33.33;;;1.10;99.90;;;;;;4351698;28;658279;-69
2021/12/11 13:56:00;;;;;;;80.70;32.57;;;1.10;99.90;;;;;;4393441;28;657485;-69
2021/12/11 13:58:49;;;;;;;79.73;32.37;;;1.20;99.90;;;;;;4363149;28;658568;-69
2021/12/11 14:01:38;;;;;;;78.03;30.90;;;1.20;99.90;;;;;;4357048;28;658024;-69
2021/12/11 14:04:27;;;;;;;89.45;32.67;;;1.10;99.90;;;;;;4362205;28;658015;-69
2021/12/11 14:07:19;;;;;;;80.10;31.50;;;1.10;99.90;;;;;;4382499;28;657711;-69
2021/12/11 14:10:18;;;;;;;89.80;32.73;;;1.10;99.90;;;;;;4339711;28;657837;-69
2021/12/11 14:13:08;;;;;;;85.20;34.10;;;1.00;99.90;;;;;;4342992;28;657892;-69